Clark, Texas
Current Conditions -  °F | °C
As of 3:55 PM on Thursday 27 Nov 2014 (Local Time) from K6R3 Reporting Station
Clear Clear  
Wind Chill: 65°   Ceiling: Unl
Heat Index: 65°   Visibility: 10mi
Dew Point: 37°   Wind: 0mph
Humidity: 36%   Direction: NA
Pressure: 30.43"   Gusts: NA
Location:  30.2945°N, 94.9711°W
Report Text: K6R3 272155Z AUTO 00000KT 10SM CLR 18/03 A3043 RMK AO2 T01810029
Loading
Personal Weather Stations






























Interactive Weather Map New forecast layout! Learn more

10-Day Weather Forecast

Advertisements
Track Severe Weather on mobile